Time;durP1;ratioP1;P1;durP2;ratioP2;P2;SDS_P1;SDS_P2;PMS_P1;PMS_P2;Temp;Humidity;BMP_temperature;BMP_pressure;BME280_temperature;BME280_humidity;BME280_pressure;Samples;Min_cycle;Max_cycle;Signal;HPM_P1;HPM_P2
2021/10/02 00:02:12;;;;;;;6.63;5.03;;;10.80;99.90;;;;;;5082564;28;20520;-79
2021/10/02 00:44:55;;;;;;;7.70;5.30;;;10.70;99.90;;;;;;5078417;28;20522;-80
2021/10/02 00:47:22;;;;;;;7.03;5.27;;;10.70;99.90;;;;;;5078411;28;20189;-80
2021/10/02 00:49:52;;;;;;;6.83;5.33;;;10.70;99.90;;;;;;5078712;28;20662;-80
2021/10/02 00:52:19;;;;;;;7.33;5.30;;;10.70;99.90;;;;;;5078444;28;20289;-80
2021/10/02 00:54:46;;;;;;;11.60;5.10;;;10.80;99.90;;;;;;5077163;28;20230;-80
2021/10/02 00:57:13;;;;;;;11.87;5.60;;;10.80;99.90;;;;;;5077346;28;20184;-80
2021/10/02 00:59:40;;;;;;;10.00;5.10;;;10.80;99.90;;;;;;5078724;28;20647;-80
2021/10/02 01:02:26;;;;;;;6.70;4.57;;;10.90;99.90;;;;;;5077110;28;20203;-80
2021/10/02 01:05:24;;;;;;;6.47;4.70;;;10.90;99.90;;;;;;5078355;28;20176;-80
2021/10/02 01:08:18;;;;;;;7.10;4.60;;;10.90;99.90;;;;;;5079153;28;20551;-80
2021/10/02 01:11:03;;;;;;;6.60;4.53;;;10.90;99.90;;;;;;5076805;28;20189;-80
2021/10/02 01:14:23;;;;;;;6.53;5.00;;;10.90;99.90;;;;;;5079213;28;20157;-80
2021/10/02 01:16:52;;;;;;;6.07;4.13;;;10.90;99.90;;;;;;5053983;28;20215;-80
2021/10/02 01:19:44;;;;;;;6.47;4.43;;;11.00;99.90;;;;;;5077031;28;20200;-80
2021/10/02 01:22:19;;;;;;;6.30;4.43;;;11.00;99.90;;;;;;5077626;28;20179;-80
2021/10/02 01:25:03;;;;;;;5.60;4.37;;;11.10;99.90;;;;;;5076327;28;20175;-80
2021/10/02 01:27:59;;;;;;;6.10;4.47;;;11.10;99.90;;;;;;5078066;28;20191;-80
2021/10/02 01:33:56;;;;;;;9.23;4.37;;;11.10;99.90;;;;;;5077558;28;20160;-80
2021/10/02 01:36:53;;;;;;;5.57;4.93;;;11.20;99.90;;;;;;5075190;28;20251;-80
2021/10/02 01:47:51;;;;;;;6.33;4.47;;;11.20;99.90;;;;;;5078721;28;20200;-80
2021/10/02 01:50:24;;;;;;;6.47;4.63;;;11.20;99.90;;;;;;5079115;28;20187;-80
2021/10/02 01:52:51;;;;;;;8.17;4.30;;;11.20;99.90;;;;;;5078654;28;20180;-80
2021/10/02 01:55:18;;;;;;;6.03;4.53;;;11.20;99.90;;;;;;5079612;28;20181;-80
2021/10/02 01:57:53;;;;;;;7.17;4.20;;;11.20;99.90;;;;;;5079915;28;20196;-80
2021/10/02 02:00:19;;;;;;;5.37;4.37;;;11.30;99.90;;;;;;5079781;28;20192;-80
2021/10/02 02:02:49;;;;;;;5.40;3.97;;;11.30;99.90;;;;;;5078509;28;20206;-80
2021/10/02 02:05:19;;;;;;;5.93;4.50;;;11.30;99.90;;;;;;5080138;28;20183;-80
2021/10/02 02:07:52;;;;;;;5.50;4.03;;;11.40;99.90;;;;;;5079709;28;20542;-80
2021/10/02 02:10:19;;;;;;;5.60;4.07;;;11.40;99.90;;;;;;5077972;28;20188;-80
2021/10/02 02:12:48;;;;;;;5.53;4.20;;;11.40;99.90;;;;;;5079014;28;20208;-81
2021/10/02 02:15:15;;;;;;;6.73;4.10;;;11.40;99.90;;;;;;5080524;28;20188;-80
2021/10/02 02:17:45;;;;;;;7.27;4.40;;;11.50;99.90;;;;;;5082704;28;20201;-80
2021/10/02 02:20:21;;;;;;;10.93;5.00;;;11.40;99.90;;;;;;5083160;28;20224;-80
2021/10/02 02:22:48;;;;;;;5.87;4.17;;;11.50;99.90;;;;;;5078964;28;20176;-81
2021/10/02 02:25:14;;;;;;;5.43;4.40;;;11.40;99.90;;;;;;5076374;28;20252;-80
2021/10/02 02:27:40;;;;;;;6.10;4.73;;;11.50;99.90;;;;;;5076568;28;20563;-80
2021/10/02 02:30:06;;;;;;;4.57;4.17;;;11.40;99.90;;;;;;5077731;28;20264;-80
2021/10/02 02:32:34;;;;;;;6.40;5.53;;;11.50;99.90;;;;;;5076902;28;20512;-80
2021/10/02 02:34:59;;;;;;;5.17;4.10;;;11.50;99.90;;;;;;5077565;28;20181;-80
2021/10/02 02:37:25;;;;;;;4.43;3.80;;;11.50;99.90;;;;;;5077101;28;20254;-80
2021/10/02 02:39:51;;;;;;;5.00;3.97;;;11.40;99.90;;;;;;5076397;28;20212;-80
2021/10/02 02:42:18;;;;;;;5.03;3.90;;;11.50;99.90;;;;;;5077076;28;20173;-80
2021/10/02 02:44:43;;;;;;;6.77;4.47;;;11.50;99.90;;;;;;5077466;28;20177;-80
2021/10/02 02:47:14;;;;;;;5.33;4.10;;;11.50;99.90;;;;;;5075830;28;20582;-80
2021/10/02 02:49:59;;;;;;;6.77;4.20;;;11.50;99.90;;;;;;5077732;28;20155;-80
2021/10/02 02:52:31;;;;;;;5.17;3.83;;;11.50;99.90;;;;;;5077090;28;20169;-80
2021/10/02 02:55:04;;;;;;;6.20;3.93;;;11.50;99.90;;;;;;5077133;28;20242;-81
2021/10/02 02:57:46;;;;;;;6.63;3.80;;;11.60;99.90;;;;;;5077001;28;20291;-81
2021/10/02 03:00:15;;;;;;;5.07;3.77;;;11.60;99.90;;;;;;5083166;28;20219;-80
2021/10/02 03:03:07;;;;;;;6.70;4.03;;;11.60;99.90;;;;;;5080253;28;20172;-80
2021/10/02 03:05:37;;;;;;;4.53;3.97;;;11.60;99.90;;;;;;5079858;28;20545;-80
2021/10/02 03:08:08;;;;;;;4.97;3.83;;;11.60;99.90;;;;;;5080031;28;20197;-80
2021/10/02 03:10:35;;;;;;;4.80;4.10;;;11.60;99.90;;;;;;5075160;28;20165;-80
2021/10/02 03:13:09;;;;;;;5.57;3.77;;;11.70;99.90;;;;;;5076956;28;20177;-80
2021/10/02 03:15:36;;;;;;;6.13;4.40;;;11.70;99.90;;;;;;5075441;28;20196;-80
2021/10/02 03:18:03;;;;;;;4.57;3.80;;;11.60;99.90;;;;;;5075203;28;20284;-80
2021/10/02 03:20:29;;;;;;;4.27;3.40;;;11.60;99.90;;;;;;5074855;28;20264;-80
2021/10/02 03:22:56;;;;;;;5.23;4.00;;;11.60;99.90;;;;;;5076387;28;20173;-80
2021/10/02 03:25:30;;;;;;;5.93;4.23;;;11.50;99.90;;;;;;5075815;28;20252;-80
2021/10/02 03:27:58;;;;;;;6.97;4.00;;;11.50;99.90;;;;;;5076626;28;20529;-80
2021/10/02 03:30:25;;;;;;;5.13;4.17;;;11.50;99.90;;;;;;5075965;28;20172;-80
2021/10/02 03:32:52;;;;;;;4.93;3.50;;;11.40;99.90;;;;;;5076551;28;20173;-80
2021/10/02 03:35:18;;;;;;;4.80;3.93;;;11.30;99.90;;;;;;5075503;28;20181;-80
2021/10/02 03:37:45;;;;;;;5.37;4.43;;;11.30;99.90;;;;;;5076754;28;20669;-80
2021/10/02 03:40:11;;;;;;;4.93;3.80;;;11.30;99.90;;;;;;5074786;28;20208;-80
2021/10/02 03:42:52;;;;;;;6.70;4.33;;;11.30;99.90;;;;;;5076720;28;20238;-80
2021/10/02 03:45:19;;;;;;;5.20;3.77;;;11.30;99.90;;;;;;5078912;28;20661;-80
2021/10/02 03:47:45;;;;;;;5.00;4.00;;;11.30;99.90;;;;;;5080642;28;20208;-80
2021/10/02 03:50:11;;;;;;;7.67;3.40;;;11.40;99.90;;;;;;5080383;28;20188;-80
2021/10/02 03:52:37;;;;;;;4.50;3.80;;;11.40;99.90;;;;;;5079328;28;20645;-80
2021/10/02 03:55:05;;;;;;;5.07;3.87;;;11.40;99.90;;;;;;5079025;28;20183;-80
2021/10/02 03:57:30;;;;;;;4.90;4.17;;;11.40;99.90;;;;;;5079988;28;20248;-80
2021/10/02 03:59:56;;;;;;;5.50;3.67;;;11.50;99.90;;;;;;5079659;28;20239;-80
2021/10/02 04:02:23;;;;;;;7.20;3.87;;;11.50;99.90;;;;;;5078220;28;20165;-80
2021/10/02 04:04:49;;;;;;;4.30;3.50;;;11.60;99.90;;;;;;5079881;28;20165;-80
2021/10/02 04:07:15;;;;;;;6.67;3.50;;;11.60;99.90;;;;;;5080613;28;20211;-80
2021/10/02 04:09:40;;;;;;;4.07;3.67;;;11.60;99.90;;;;;;5082180;28;20177;-80
2021/10/02 04:12:06;;;;;;;4.87;3.60;;;11.70;99.90;;;;;;5084937;28;20537;-80
2021/10/02 04:14:33;;;;;;;3.97;3.57;;;11.60;99.90;;;;;;5081167;28;20204;-80
2021/10/02 04:16:59;;;;;;;6.90;3.93;;;11.60;99.90;;;;;;5081902;28;20191;-80
2021/10/02 04:19:25;;;;;;;6.67;4.07;;;11.70;99.90;;;;;;5082302;28;20204;-80
2021/10/02 04:21:51;;;;;;;4.80;3.93;;;11.60;99.90;;;;;;5083140;28;20169;-80
2021/10/02 04:24:17;;;;;;;6.03;4.10;;;11.70;99.90;;;;;;5081753;28;20609;-81
2021/10/02 04:26:43;;;;;;;7.03;4.63;;;11.60;99.90;;;;;;5083318;28;20165;-80
2021/10/02 04:29:09;;;;;;;5.70;4.17;;;11.60;99.90;;;;;;5084463;28;20208;-80
2021/10/02 04:31:35;;;;;;;6.33;4.30;;;11.60;99.90;;;;;;5084071;28;20177;-80
2021/10/02 04:34:01;;;;;;;5.40;4.30;;;11.50;99.90;;;;;;5084182;28;20180;-80
2021/10/02 04:36:26;;;;;;;6.90;4.70;;;11.50;99.90;;;;;;5080480;28;20492;-80
2021/10/02 04:38:54;;;;;;;6.20;4.57;;;11.50;99.90;;;;;;5076902;28;20332;-80
2021/10/02 04:41:20;;;;;;;5.17;4.03;;;11.50;99.90;;;;;;5075317;28;20177;-80
2021/10/02 04:43:47;;;;;;;5.43;4.87;;;11.50;99.90;;;;;;5077981;28;20180;-81
2021/10/02 04:46:15;;;;;;;7.27;5.20;;;11.50;99.90;;;;;;5080293;28;20188;-80
2021/10/02 04:48:41;;;;;;;6.50;4.77;;;11.50;99.90;;;;;;5081203;28;20192;-81
2021/10/02 04:51:08;;;;;;;5.70;4.33;;;11.50;99.90;;;;;;5081305;28;20176;-80
2021/10/02 04:53:34;;;;;;;6.70;4.40;;;11.40;99.90;;;;;;5081543;28;20168;-80
2021/10/02 04:56:05;;;;;;;4.70;3.80;;;11.40;99.90;;;;;;5080872;28;20549;-80
2021/10/02 04:58:31;;;;;;;6.30;4.47;;;11.40;99.90;;;;;;5080120;28;20212;-81
2021/10/02 05:00:56;;;;;;;7.40;4.87;;;11.40;99.90;;;;;;5081370;28;20635;-80
2021/10/02 05:03:22;;;;;;;8.10;4.73;;;11.40;99.90;;;;;;5081094;28;20639;-81
2021/10/02 05:05:48;;;;;;;6.30;4.37;;;11.40;99.90;;;;;;5080061;28;20179;-80
2021/10/02 05:08:14;;;;;;;7.10;5.03;;;11.40;99.90;;;;;;5079793;28;20263;-80
2021/10/02 05:10:40;;;;;;;7.07;5.30;;;11.50;99.90;;;;;;5081599;28;20169;-80
2021/10/02 05:13:06;;;;;;;7.40;5.33;;;11.50;99.90;;;;;;5081193;28;20169;-80
2021/10/02 05:15:33;;;;;;;7.40;5.43;;;11.50;99.90;;;;;;5080732;28;20192;-80
2021/10/02 05:17:59;;;;;;;7.40;5.27;;;11.50;99.90;;;;;;5080738;28;20231;-81
2021/10/02 05:20:24;;;;;;;8.90;6.43;;;11.60;99.90;;;;;;5081711;28;20189;-80
2021/10/02 05:22:50;;;;;;;7.87;6.17;;;11.60;99.90;;;;;;5079725;28;20184;-80
2021/10/02 05:25:16;;;;;;;7.77;6.30;;;11.60;99.90;;;;;;5081883;28;20203;-80
2021/10/02 05:27:41;;;;;;;8.13;6.57;;;11.50;99.90;;;;;;5082074;28;20189;-80
2021/10/02 05:30:07;;;;;;;9.17;6.27;;;11.60;99.90;;;;;;5082439;28;20692;-80
2021/10/02 05:32:33;;;;;;;7.00;5.87;;;11.50;99.90;;;;;;5082198;28;20650;-80
2021/10/02 05:34:59;;;;;;;8.70;6.20;;;11.60;99.90;;;;;;5079662;28;20260;-81
2021/10/02 05:37:24;;;;;;;8.97;6.30;;;11.60;99.90;;;;;;5080483;28;20677;-80
2021/10/02 05:39:50;;;;;;;8.50;6.50;;;11.60;99.90;;;;;;5081766;28;20247;-80
2021/10/02 05:42:16;;;;;;;9.27;6.23;;;11.60;99.90;;;;;;5081225;28;20219;-80
2021/10/02 05:44:42;;;;;;;8.10;6.13;;;11.60;99.90;;;;;;5082686;28;20234;-81
2021/10/02 05:47:07;;;;;;;7.73;5.73;;;11.60;99.90;;;;;;5083659;28;20204;-80
2021/10/02 05:49:33;;;;;;;7.23;4.90;;;11.60;99.90;;;;;;5084171;28;20181;-80
2021/10/02 05:51:59;;;;;;;9.73;6.43;;;11.60;99.90;;;;;;5092507;28;20245;-80
2021/10/02 05:54:25;;;;;;;7.13;5.67;;;11.60;99.90;;;;;;5092877;28;20181;-80
2021/10/02 05:56:50;;;;;;;7.30;5.60;;;11.50;99.90;;;;;;5093635;28;20169;-80
2021/10/02 05:59:16;;;;;;;6.93;4.73;;;11.50;99.90;;;;;;5092725;28;20208;-80
2021/10/02 06:01:42;;;;;;;9.57;5.70;;;11.60;99.90;;;;;;5091021;28;20572;-80
2021/10/02 06:04:07;;;;;;;9.37;6.20;;;11.60;99.90;;;;;;5080551;28;20183;-80
2021/10/02 06:06:33;;;;;;;8.07;5.00;;;11.60;99.90;;;;;;5079287;28;20642;-80
2021/10/02 06:08:59;;;;;;;7.77;5.43;;;11.60;99.90;;;;;;5079516;28;20254;-80
2021/10/02 06:11:24;;;;;;;6.43;5.30;;;11.60;99.90;;;;;;5079140;28;20646;-81
2021/10/02 06:13:50;;;;;;;9.83;5.50;;;11.70;99.90;;;;;;5081162;28;20173;-80
2021/10/02 06:16:16;;;;;;;5.37;4.50;;;11.70;99.90;;;;;;5080926;28;20193;-80
2021/10/02 06:18:43;;;;;;;6.83;4.97;;;11.80;99.90;;;;;;5078322;28;20251;-80
2021/10/02 06:21:11;;;;;;;6.60;4.73;;;11.90;99.90;;;;;;5077018;28;20177;-80
2021/10/02 06:23:38;;;;;;;9.13;5.03;;;12.00;99.90;;;;;;5078686;28;20582;-81
2021/10/02 06:26:04;;;;;;;7.90;4.67;;;12.10;99.90;;;;;;5077805;28;20173;-80
2021/10/02 06:28:30;;;;;;;6.47;4.93;;;12.10;99.90;;;;;;5077266;28;20217;-80
2021/10/02 06:30:55;;;;;;;9.20;4.83;;;12.30;99.90;;;;;;5074161;28;20536;-80
2021/10/02 06:33:21;;;;;;;7.87;4.40;;;12.40;99.90;;;;;;5077121;28;20181;-80
2021/10/02 06:35:47;;;;;;;9.97;4.90;;;12.50;99.90;;;;;;5078876;28;20576;-80
2021/10/02 06:38:12;;;;;;;7.57;5.27;;;12.60;99.90;;;;;;5079523;28;20276;-80
2021/10/02 06:40:40;;;;;;;5.50;4.33;;;12.80;99.90;;;;;;5078669;28;20172;-80
2021/10/02 06:43:06;;;;;;;5.97;5.17;;;12.90;99.90;;;;;;5078162;28;20173;-81
2021/10/02 06:45:32;;;;;;;6.03;4.67;;;13.10;99.90;;;;;;5080571;28;20179;-81
2021/10/02 06:47:58;;;;;;;9.37;4.60;;;13.20;99.90;;;;;;5082142;28;20267;-80
2021/10/02 06:50:24;;;;;;;6.23;5.17;;;13.30;99.90;;;;;;5082463;28;20236;-81
2021/10/02 06:52:50;;;;;;;7.30;4.80;;;13.30;99.90;;;;;;5083159;28;20611;-80
2021/10/02 06:55:15;;;;;;;8.20;5.03;;;13.30;99.90;;;;;;5084581;28;20212;-80
2021/10/02 06:57:41;;;;;;;8.13;5.13;;;13.40;99.90;;;;;;5084225;28;20199;-80
2021/10/02 07:00:07;;;;;;;5.50;4.67;;;13.40;99.90;;;;;;5079519;28;20220;-79
2021/10/02 07:02:38;;;;;;;10.33;5.37;;;13.40;99.90;;;;;;5080814;28;20176;-80
2021/10/02 07:05:04;;;;;;;9.03;5.70;;;13.40;99.90;;;;;;5080145;28;20156;-79
2021/10/02 07:07:30;;;;;;;6.17;5.13;;;13.40;99.90;;;;;;5080700;28;20192;-80
2021/10/02 07:09:55;;;;;;;9.33;5.60;;;13.50;99.90;;;;;;5078997;28;20227;-80
2021/10/02 07:12:21;;;;;;;8.37;5.90;;;13.60;99.90;;;;;;5080338;28;20179;-80
2021/10/02 07:14:46;;;;;;;9.57;6.80;;;13.60;99.90;;;;;;5079540;28;20634;-81
2021/10/02 07:17:13;;;;;;;9.87;6.10;;;13.70;99.90;;;;;;5078195;28;20195;-79
2021/10/02 07:19:39;;;;;;;11.67;6.53;;;13.80;99.90;;;;;;5077858;28;20222;-80
2021/10/02 07:22:05;;;;;;;8.23;5.63;;;13.90;99.90;;;;;;5080238;28;20169;-80
2021/10/02 07:24:31;;;;;;;9.90;6.47;;;13.90;99.90;;;;;;5080749;28;20165;-80
2021/10/02 07:26:57;;;;;;;9.43;5.57;;;14.00;99.90;;;;;;5080911;28;20175;-79
2021/10/02 07:29:22;;;;;;;7.13;5.63;;;14.10;99.90;;;;;;5081173;28;20173;-79
2021/10/02 07:31:49;;;;;;;6.30;5.37;;;14.20;99.90;;;;;;5080474;28;20199;-79
2021/10/02 07:34:15;;;;;;;6.57;5.07;;;14.30;99.90;;;;;;5081002;28;20158;-79
2021/10/02 07:36:41;;;;;;;6.30;5.07;;;14.30;99.90;;;;;;5079646;28;20176;-80
2021/10/02 07:39:07;;;;;;;6.70;5.30;;;14.40;99.90;;;;;;5077876;28;20212;-80
2021/10/02 07:41:41;;;;;;;7.33;5.17;;;14.40;99.90;;;;;;5077673;28;20170;-80
2021/10/02 07:44:11;;;;;;;8.77;5.13;;;14.40;99.90;;;;;;5077105;28;20209;-79
2021/10/02 07:46:41;;;;;;;9.27;5.47;;;14.40;99.90;;;;;;5083471;28;20226;-79
2021/10/02 07:49:07;;;;;;;7.30;5.10;;;14.60;99.90;;;;;;5084400;28;20249;-79
2021/10/02 07:51:33;;;;;;;7.83;4.80;;;14.60;99.90;;;;;;5084468;28;20548;-79
2021/10/02 07:53:59;;;;;;;7.43;4.87;;;14.70;99.90;;;;;;5084491;28;20193;-80
2021/10/02 07:56:27;;;;;;;8.30;4.80;;;14.70;99.90;;;;;;5085372;28;20696;-80
2021/10/02 07:58:54;;;;;;;6.00;4.83;;;14.80;99.90;;;;;;5083101;28;20212;-80
2021/10/02 08:01:21;;;;;;;7.57;5.03;;;15.00;99.90;;;;;;5083474;28;20176;-80
2021/10/02 08:03:48;;;;;;;6.10;4.73;;;15.10;99.90;;;;;;5083933;28;20173;-80
2021/10/02 08:06:16;;;;;;;6.70;4.57;;;15.10;99.90;;;;;;5082077;28;20177;-80
2021/10/02 08:08:42;;;;;;;7.50;4.93;;;15.10;99.90;;;;;;5082815;28;20575;-80
2021/10/02 08:11:08;;;;;;;6.73;4.40;;;15.10;99.90;;;;;;5082514;28;20177;-80
2021/10/02 08:13:34;;;;;;;5.40;4.53;;;15.10;99.90;;;;;;5083118;28;20199;-80
2021/10/02 08:16:02;;;;;;;6.67;5.20;;;15.20;99.90;;;;;;5082213;28;20298;-81
2021/10/02 08:18:36;;;;;;;6.80;4.63;;;15.30;99.90;;;;;;5084089;28;20239;-81
2021/10/02 08:21:02;;;;;;;7.67;5.00;;;15.40;99.90;;;;;;5082903;28;20615;-80
2021/10/02 08:23:28;;;;;;;7.47;4.90;;;15.50;99.90;;;;;;5081895;28;20650;-80
2021/10/02 08:25:54;;;;;;;9.07;5.10;;;15.70;99.90;;;;;;5079563;28;20178;-81
2021/10/02 08:28:21;;;;;;;8.17;4.80;;;15.90;99.90;;;;;;5081724;28;20203;-80
2021/10/02 08:30:50;;;;;;;11.43;4.97;;;16.10;99.90;;;;;;5082705;28;20214;-81
2021/10/02 08:33:16;;;;;;;6.07;4.70;;;16.40;99.90;;;;;;5084431;28;20201;-81
2021/10/02 08:35:42;;;;;;;5.90;4.50;;;16.50;99.90;;;;;;5084558;28;20188;-81
2021/10/02 08:38:08;;;;;;;7.80;4.43;;;16.40;99.90;;;;;;5084737;28;20261;-81
2021/10/02 08:40:34;;;;;;;5.77;4.43;;;16.50;99.90;;;;;;5082942;28;20550;-81
2021/10/02 08:43:02;;;;;;;11.03;4.60;;;16.60;99.90;;;;;;5085445;28;20191;-81
2021/10/02 08:45:30;;;;;;;6.20;4.63;;;17.00;99.90;;;;;;5083981;28;20193;-81
2021/10/02 08:47:57;;;;;;;7.53;4.50;;;17.50;99.90;;;;;;5084943;28;20197;-81
2021/10/02 08:50:24;;;;;;;8.93;4.17;;;17.90;99.90;;;;;;5085685;28;20180;-81
2021/10/02 08:52:52;;;;;;;5.47;4.50;;;18.00;99.90;;;;;;5090029;28;20207;-80
2021/10/02 08:55:20;;;;;;;5.73;4.33;;;18.10;99.90;;;;;;5092004;28;20188;-81
2021/10/02 08:57:48;;;;;;;5.93;4.87;;;18.20;99.90;;;;;;5092492;28;20269;-80
2021/10/02 09:00:19;;;;;;;6.70;4.53;;;18.60;99.90;;;;;;5091015;28;20228;-80
2021/10/02 09:02:45;;;;;;;6.53;4.20;;;19.70;99.90;;;;;;5089012;28;20178;-82
2021/10/02 09:05:14;;;;;;;5.97;4.67;;;20.50;99.90;;;;;;5083413;28;20247;-81
2021/10/02 09:07:40;;;;;;;4.87;4.37;;;21.00;99.90;;;;;;5083503;28;20204;-78
2021/10/02 09:10:09;;;;;;;6.57;5.23;;;21.50;99.90;;;;;;5084204;28;20181;-79
2021/10/02 09:12:38;;;;;;;6.63;4.93;;;21.60;99.90;;;;;;5084467;28;20257;-79
2021/10/02 09:15:05;;;;;;;7.13;4.40;;;21.70;99.90;;;;;;5084306;28;20638;-80
2021/10/02 09:17:31;;;;;;;5.77;4.57;;;21.50;99.90;;;;;;5082669;28;20279;-79
2021/10/02 09:19:57;;;;;;;4.20;3.80;;;21.20;99.90;;;;;;5083378;28;20197;-79
2021/10/02 09:22:23;;;;;;;5.17;4.23;;;21.10;99.90;;;;;;5083093;28;20701;-80
2021/10/02 09:24:50;;;;;;;4.50;4.00;;;21.30;99.90;;;;;;5080650;28;20204;-79
2021/10/02 09:27:22;;;;;;;5.93;4.33;;;21.60;99.90;;;;;;5082791;28;20215;-79
2021/10/02 09:30:08;;;;;;;5.50;4.03;;;22.10;99.90;;;;;;5082745;28;20187;-79
2021/10/02 09:32:38;;;;;;;5.07;3.77;;;22.20;99.90;;;;;;5083254;28;20154;-79
2021/10/02 09:35:15;;;;;;;4.30;3.90;;;22.00;99.90;;;;;;5082416;28;20171;-79
2021/10/02 09:37:43;;;;;;;5.23;4.03;;;21.40;99.90;;;;;;5082808;28;20221;-79
2021/10/02 09:40:17;;;;;;;6.10;4.30;;;21.00;99.90;;;;;;5082467;28;20197;-80
2021/10/02 09:42:46;;;;;;;5.97;3.67;;;21.00;99.90;;;;;;5079416;28;20241;-79
2021/10/02 09:45:14;;;;;;;5.87;3.80;;;21.50;99.90;;;;;;5080675;28;20169;-78
2021/10/02 09:47:41;;;;;;;5.30;3.53;;;22.00;99.90;;;;;;5077588;28;20199;-78
2021/10/02 09:50:10;;;;;;;4.93;3.87;;;22.70;99.90;;;;;;5077958;28;20165;-78
2021/10/02 09:52:43;;;;;;;6.97;4.23;;;23.20;99.90;;;;;;5080033;28;20191;-78
2021/10/02 09:55:19;;;;;;;5.13;3.43;;;23.40;99.90;;;;;;5079164;28;20250;-78
2021/10/02 09:57:48;;;;;;;4.40;3.60;;;23.80;99.90;;;;;;5081070;28;20197;-78
2021/10/02 10:00:17;;;;;;;3.57;3.10;;;24.30;99.90;;;;;;5079262;28;20276;-78
2021/10/02 10:02:43;;;;;;;4.40;2.97;;;24.60;99.90;;;;;;5078888;28;20539;-78
2021/10/02 10:05:11;;;;;;;3.90;2.90;;;24.70;99.90;;;;;;5078256;28;20545;-78
2021/10/02 10:07:37;;;;;;;3.50;2.90;;;24.90;99.90;;;;;;5079975;28;20207;-79
2021/10/02 10:10:14;;;;;;;5.93;3.10;;;24.60;99.90;;;;;;5079908;28;20634;-78
2021/10/02 10:12:42;;;;;;;3.10;2.50;;;24.30;99.90;;;;;;5078598;28;20260;-77
2021/10/02 10:15:37;;;;;;;5.10;2.93;;;24.30;99.90;;;;;;5076205;28;20543;-78
2021/10/02 10:18:04;;;;;;;5.53;2.73;;;24.40;99.90;;;;;;5077174;28;20200;-78
2021/10/02 10:20:32;;;;;;;10.20;3.50;;;24.30;99.90;;;;;;5076978;28;20682;-78
2021/10/02 10:23:00;;;;;;;3.57;2.40;;;24.20;99.90;;;;;;5078962;28;20204;-78
2021/10/02 10:25:26;;;;;;;5.23;2.40;;;24.10;99.90;;;;;;5077183;28;20174;-78
2021/10/02 10:27:52;;;;;;;2.60;2.40;;;24.30;99.90;;;;;;5077803;28;20215;-77
2021/10/02 10:30:22;;;;;;;4.97;2.57;;;24.60;99.40;;;;;;5077074;28;20182;-77
2021/10/02 10:33:04;;;;;;;5.87;2.60;;;24.80;99.90;;;;;;5076024;28;20186;-78
2021/10/02 10:35:36;;;;;;;4.37;2.50;;;25.10;99.90;;;;;;5075714;28;20167;-78
2021/10/02 10:38:04;;;;;;;3.10;2.20;;;25.30;98.40;;;;;;5076465;28;20199;-77
2021/10/02 10:40:30;;;;;;;3.10;2.30;;;25.70;97.60;;;;;;5076034;28;20213;-77
2021/10/02 10:42:55;;;;;;;2.50;2.30;;;25.70;97.20;;;;;;5075026;28;20183;-78
2021/10/02 10:45:23;;;;;;;3.10;2.40;;;26.00;97.90;;;;;;5073870;28;20177;-78
2021/10/02 10:47:50;;;;;;;3.07;2.77;;;26.30;98.00;;;;;;5074785;28;20273;-78
2021/10/02 10:50:17;;;;;;;2.83;2.63;;;26.50;95.40;;;;;;5075126;28;20179;-79
2021/10/02 10:52:43;;;;;;;3.20;2.70;;;26.40;95.90;;;;;;5081583;28;20187;-79
2021/10/02 10:55:12;;;;;;;4.37;2.70;;;26.50;94.80;;;;;;5081442;28;20177;-79
2021/10/02 10:57:41;;;;;;;2.97;2.60;;;26.30;94.50;;;;;;5080173;28;20205;-78
2021/10/02 11:00:16;;;;;;;3.57;2.50;;;26.00;93.20;;;;;;5081137;28;20200;-79
2021/10/02 11:02:55;;;;;;;2.50;2.30;;;25.80;92.50;;;;;;5081527;28;20161;-79
2021/10/02 11:05:44;;;;;;;3.23;2.90;;;25.80;93.30;;;;;;5080834;28;20176;-78
2021/10/02 11:08:20;;;;;;;4.10;3.10;;;25.90;92.60;;;;;;5079122;28;20205;-79
2021/10/02 11:10:52;;;;;;;3.33;2.77;;;26.50;94.10;;;;;;5080522;28;20691;-79
2021/10/02 11:13:18;;;;;;;4.33;2.60;;;26.50;92.30;;;;;;5078580;28;20207;-78
2021/10/02 11:15:45;;;;;;;3.77;2.70;;;26.70;93.60;;;;;;5079864;28;20213;-79
2021/10/02 11:18:46;;;;;;;3.83;2.73;;;26.60;88.40;;;;;;5079953;28;20291;-79
2021/10/02 11:21:17;;;;;;;3.07;2.77;;;26.80;94.70;;;;;;5080234;28;20188;-78
2021/10/02 11:24:07;;;;;;;4.13;2.60;;;26.90;91.40;;;;;;5080305;28;20169;-78
2021/10/02 11:26:56;;;;;;;3.67;3.03;;;27.00;92.70;;;;;;5080080;28;20198;-79
2021/10/02 11:29:27;;;;;;;3.53;2.63;;;27.50;94.50;;;;;;5080722;28;20240;-78
2021/10/02 11:32:21;;;;;;;3.33;2.70;;;28.20;89.10;;;;;;5080152;28;20176;-78
2021/10/02 11:35:12;;;;;;;4.67;2.50;;;28.10;90.00;;;;;;5079456;28;20268;-78
2021/10/02 11:37:52;;;;;;;3.20;2.80;;;28.30;88.70;;;;;;5080406;28;20215;-78
2021/10/02 11:40:36;;;;;;;5.60;2.77;;;28.80;88.70;;;;;;5078730;28;20214;-79
2021/10/02 11:43:17;;;;;;;3.93;2.93;;;29.00;85.50;;;;;;5087027;28;20174;-77
2021/10/02 11:45:46;;;;;;;2.97;2.60;;;29.20;88.20;;;;;;5091747;28;20167;-78
2021/10/02 11:48:13;;;;;;;4.00;3.00;;;29.40;83.10;;;;;;5090611;28;20246;-78
2021/10/02 11:50:39;;;;;;;3.03;2.73;;;29.30;83.00;;;;;;5090733;28;20197;-78
2021/10/02 11:53:05;;;;;;;3.10;2.80;;;29.50;81.40;;;;;;5083320;28;20267;-78
2021/10/02 11:55:34;;;;;;;4.10;2.87;;;29.70;84.70;;;;;;5077679;28;20175;-78
2021/10/02 12:01:01;;;;;;;3.67;2.70;;;29.60;78.00;;;;;;5079176;28;20204;-81
2021/10/02 12:03:33;;;;;;;3.07;2.67;;;29.30;78.10;;;;;;5072516;28;20189;-80
2021/10/02 12:06:02;;;;;;;3.20;2.90;;;28.30;79.70;;;;;;5085496;28;20187;-81
2021/10/02 12:08:28;;;;;;;4.17;3.00;;;28.10;78.10;;;;;;5085800;28;20201;-80
2021/10/02 12:11:07;;;;;;;4.97;3.00;;;27.10;81.30;;;;;;5082538;28;20600;-79
2021/10/02 12:13:39;;;;;;;4.03;2.70;;;26.60;87.00;;;;;;5081710;28;20176;-79
2021/10/02 12:16:05;;;;;;;5.43;3.13;;;27.20;90.50;;;;;;5083270;28;20708;-79
2021/10/02 12:18:57;;;;;;;3.80;2.87;;;28.50;85.30;;;;;;5081063;28;20289;-79
2021/10/02 12:21:23;;;;;;;4.53;3.60;;;29.50;79.00;;;;;;5083297;28;20178;-79
2021/10/02 12:24:18;;;;;;;3.13;2.83;;;30.00;76.30;;;;;;5082785;28;20531;-79
2021/10/02 12:26:54;;;;;;;4.23;3.20;;;30.50;76.50;;;;;;5076779;28;20280;-79
2021/10/02 12:29:24;;;;;;;3.43;3.13;;;30.80;78.00;;;;;;5082762;28;20263;-79
2021/10/02 12:32:08;;;;;;;3.90;3.10;;;30.70;72.40;;;;;;5083564;28;20268;-79
2021/10/02 12:34:49;;;;;;;6.23;3.93;;;30.80;79.90;;;;;;5081200;28;20181;-79
2021/10/02 12:37:16;;;;;;;5.00;3.60;;;30.70;71.50;;;;;;5082362;28;20383;-79
2021/10/02 12:39:47;;;;;;;4.87;3.40;;;30.50;75.70;;;;;;5083186;28;20229;-79
2021/10/02 12:42:38;;;;;;;4.07;3.60;;;30.90;76.90;;;;;;5081874;28;20177;-79
2021/10/02 12:45:10;;;;;;;4.47;3.33;;;30.90;70.80;;;;;;5073364;28;20267;-80
2021/10/02 12:47:36;;;;;;;5.60;3.87;;;31.10;71.10;;;;;;5082203;28;20188;-79
2021/10/02 12:50:07;;;;;;;3.40;3.10;;;31.40;72.90;;;;;;5082134;28;20607;-79
2021/10/02 12:52:33;;;;;;;3.50;3.20;;;31.70;70.50;;;;;;5080247;28;20173;-79
2021/10/02 12:55:00;;;;;;;4.83;3.17;;;31.90;73.90;;;;;;5082416;28;20197;-79
2021/10/02 12:57:37;;;;;;;3.30;3.00;;;31.70;67.10;;;;;;5081651;28;20203;-79
2021/10/02 13:00:16;;;;;;;4.93;3.47;;;31.80;69.40;;;;;;5081800;28;20197;-79
2021/10/02 13:02:54;;;;;;;3.87;3.30;;;32.00;64.20;;;;;;5080955;28;20185;-79
2021/10/02 13:05:23;;;;;;;3.80;3.30;;;31.70;64.90;;;;;;5079879;28;20176;-79
2021/10/02 13:07:57;;;;;;;3.53;3.23;;;31.70;65.80;;;;;;5079988;28;20208;-79
2021/10/02 13:10:29;;;;;;;3.30;3.00;;;31.90;65.00;;;;;;5081936;28;20182;-79
2021/10/02 13:13:04;;;;;;;3.40;3.10;;;31.80;64.50;;;;;;5081657;28;20207;-79
2021/10/02 13:15:38;;;;;;;3.27;2.93;;;31.70;61.80;;;;;;5080645;28;20198;-78
2021/10/02 13:18:13;;;;;;;3.20;2.90;;;31.70;65.30;;;;;;5078688;28;20203;-79
2021/10/02 13:20:41;;;;;;;2.80;2.57;;;31.90;62.40;;;;;;5080716;28;20189;-79
2021/10/02 13:23:12;;;;;;;5.07;3.00;;;32.10;64.70;;;;;;5079276;28;20179;-79
2021/10/02 13:25:44;;;;;;;4.00;3.07;;;32.20;60.70;;;;;;5079840;28;20173;-79
2021/10/02 13:28:32;;;;;;;6.13;2.93;;;32.40;63.80;;;;;;5080282;28;20330;-79
2021/10/02 13:31:06;;;;;;;3.00;2.77;;;32.40;63.20;;;;;;5078321;28;20178;-79
2021/10/02 13:33:39;;;;;;;3.23;2.93;;;32.70;62.60;;;;;;5079198;28;20610;-79
2021/10/02 13:36:05;;;;;;;3.27;2.97;;;32.40;61.30;;;;;;5078678;28;20184;-79
2021/10/02 13:38:39;;;;;;;3.10;2.77;;;32.30;61.10;;;;;;5078210;28;20204;-79
2021/10/02 13:41:09;;;;;;;5.80;2.60;;;32.10;62.20;;;;;;5079796;28;20274;-79
2021/10/02 13:43:55;;;;;;;2.60;2.40;;;31.50;61.50;;;;;;5079154;28;20184;-80
2021/10/02 13:46:36;;;;;;;3.60;2.90;;;31.20;60.20;;;;;;5074729;28;20168;-80
2021/10/02 13:49:05;;;;;;;2.60;2.40;;;31.20;59.90;;;;;;5077497;28;20192;-78
2021/10/02 13:51:31;;;;;;;4.33;2.83;;;31.00;59.90;;;;;;5077967;28;20175;-78
2021/10/02 13:53:57;;;;;;;2.90;2.60;;;30.70;61.20;;;;;;5078174;28;20181;-78
2021/10/02 13:56:23;;;;;;;2.63;2.43;;;30.20;60.30;;;;;;5077329;28;20179;-78